Time;durP1;ratioP1;P1;durP2;ratioP2;P2;SDS_P1;SDS_P2;PMS_P1;PMS_P2;Temp;Humidity;BMP_temperature;BMP_pressure;BME280_temperature;BME280_humidity;BME280_pressure;Samples;Min_cycle;Max_cycle;Signal;HPM_P1;HPM_P2
2023/07/12 00:00:25;;;;;;;7.03;2.33;;;22.80;72.40;;;;;;5077363;28;20103;-66
2023/07/12 00:02:52;;;;;;;4.35;1.55;;;22.80;72.50;;;;;;5057423;28;20052;-66
2023/07/12 00:05:18;;;;;;;4.80;1.80;;;22.80;72.40;;;;;;5076398;28;20071;-66
2023/07/12 00:07:45;;;;;;;6.55;1.88;;;22.80;72.40;;;;;;5075173;28;20023;-66
2023/07/12 00:10:23;;;;;;;7.30;1.92;;;22.80;72.50;;;;;;5077070;28;20116;-66
2023/07/12 00:12:49;;;;;;;6.65;1.77;;;22.80;72.50;;;;;;5066501;28;20047;-66
2023/07/12 00:15:24;;;;;;;5.28;2.03;;;22.70;72.60;;;;;;5068011;28;20025;-66
2023/07/12 00:17:51;;;;;;;7.03;1.83;;;22.70;72.60;;;;;;5064881;28;20020;-66
2023/07/12 00:20:29;;;;;;;4.55;1.67;;;22.70;72.50;;;;;;5076794;28;20033;-66
2023/07/12 00:22:56;;;;;;;5.80;1.67;;;22.70;72.60;;;;;;5075247;28;20032;-66
2023/07/12 00:25:31;;;;;;;5.38;1.98;;;22.60;72.60;;;;;;5073081;28;20033;-66
2023/07/12 00:27:58;;;;;;;5.30;2.15;;;22.60;72.60;;;;;;5057811;28;20043;-66
2023/07/12 00:30:29;;;;;;;5.70;1.90;;;22.60;72.70;;;;;;5059027;28;20033;-66
2023/07/12 00:32:57;;;;;;;5.20;1.98;;;22.60;72.80;;;;;;5058486;28;20024;-66
2023/07/12 00:35:26;;;;;;;5.65;2.20;;;22.60;72.80;;;;;;5075225;28;20036;-66
2023/07/12 00:37:56;;;;;;;6.80;2.10;;;22.50;72.70;;;;;;5057704;28;20051;-66
2023/07/12 00:40:53;;;;;;;5.82;1.98;;;22.50;72.80;;;;;;5075663;28;20078;-66
2023/07/12 00:43:40;;;;;;;5.38;1.95;;;22.50;72.70;;;;;;5047635;28;20345;-66
2023/07/12 00:46:32;;;;;;;5.45;2.03;;;22.50;72.70;;;;;;5057133;28;20027;-66
2023/07/12 00:48:58;;;;;;;5.72;1.88;;;22.50;72.70;;;;;;5074940;28;20025;-66
2023/07/12 00:51:27;;;;;;;4.78;1.98;;;22.40;73.20;;;;;;5074933;28;20028;-66
2023/07/12 00:53:55;;;;;;;5.90;2.38;;;22.50;72.80;;;;;;5055661;28;20032;-66
2023/07/12 00:56:21;;;;;;;5.15;1.88;;;22.40;72.70;;;;;;5056825;28;20058;-66
2023/07/12 00:58:52;;;;;;;5.60;1.98;;;22.40;72.60;;;;;;5075538;28;20094;-66
2023/07/12 01:01:20;;;;;;;4.60;1.77;;;22.40;72.60;;;;;;5057979;28;20028;-66
2023/07/12 01:03:47;;;;;;;4.50;2.28;;;22.40;72.70;;;;;;5040950;28;20021;-66
2023/07/12 01:06:16;;;;;;;5.03;2.10;;;22.40;72.60;;;;;;5072964;28;20033;-66
2023/07/12 01:08:44;;;;;;;6.65;2.28;;;22.40;72.60;;;;;;5068450;28;20453;-66
2023/07/12 01:11:13;;;;;;;6.43;2.22;;;22.30;72.40;;;;;;5051466;28;20032;-66
2023/07/12 01:13:42;;;;;;;6.00;2.17;;;22.30;72.50;;;;;;5074488;28;20024;-66
2023/07/12 01:16:10;;;;;;;5.18;1.90;;;22.30;72.30;;;;;;5041568;28;20029;-66
2023/07/12 01:18:36;;;;;;;8.20;2.13;;;22.30;72.10;;;;;;5075023;28;20028;-66
2023/07/12 01:21:13;;;;;;;5.60;2.30;;;22.20;72.00;;;;;;5057763;28;20034;-66
2023/07/12 01:23:39;;;;;;;7.60;2.63;;;22.20;72.10;;;;;;5073172;28;20410;-66
2023/07/12 01:26:34;;;;;;;6.93;2.42;;;22.10;72.00;;;;;;5057826;28;20037;-66
2023/07/12 01:29:04;;;;;;;7.55;2.65;;;22.10;72.00;;;;;;5057281;28;20017;-66
2023/07/12 01:31:32;;;;;;;5.83;2.20;;;22.10;72.00;;;;;;5056955;28;20027;-66
2023/07/12 01:33:58;;;;;;;8.35;2.15;;;22.00;71.90;;;;;;5069615;28;20286;-66
2023/07/12 01:36:26;;;;;;;7.78;1.90;;;22.00;71.90;;;;;;5075278;28;20024;-66
2023/07/12 01:38:55;;;;;;;7.47;2.40;;;22.00;71.90;;;;;;5057128;28;20119;-66
2023/07/12 01:41:22;;;;;;;4.93;2.00;;;22.00;71.90;;;;;;5056499;28;20024;-65
2023/07/12 01:43:50;;;;;;;11.00;2.58;;;21.90;71.80;;;;;;5055412;28;20024;-66
2023/07/12 01:46:16;;;;;;;6.45;2.30;;;21.90;71.70;;;;;;5056689;28;20052;-66
2023/07/12 01:48:42;;;;;;;5.55;2.00;;;21.90;71.70;;;;;;5074363;28;20029;-66
2023/07/12 01:51:08;;;;;;;6.50;2.20;;;21.80;71.60;;;;;;5074890;28;20130;-66
2023/07/12 01:53:35;;;;;;;6.20;2.38;;;21.80;71.80;;;;;;5073501;28;20107;-66
2023/07/12 01:56:02;;;;;;;8.18;2.42;;;21.80;71.80;;;;;;5074278;28;20039;-65
2023/07/12 01:58:28;;;;;;;6.57;2.33;;;21.80;71.80;;;;;;5056409;28;20388;-65
2023/07/12 02:00:56;;;;;;;7.05;2.13;;;21.80;71.80;;;;;;5054618;28;20028;-66
2023/07/12 02:03:22;;;;;;;5.95;2.25;;;21.80;71.90;;;;;;5073479;28;20055;-65
2023/07/12 02:05:48;;;;;;;9.02;2.35;;;21.80;71.90;;;;;;5054739;28;20449;-66
2023/07/12 02:08:18;;;;;;;13.07;2.88;;;21.80;72.00;;;;;;5057125;28;20021;-66
2023/07/12 02:10:46;;;;;;;6.53;2.10;;;21.80;71.90;;;;;;5055999;28;20017;-66
2023/07/12 02:13:12;;;;;;;6.55;2.70;;;21.70;72.00;;;;;;5053621;28;20472;-65
2023/07/12 02:15:38;;;;;;;7.70;2.55;;;21.70;72.10;;;;;;5051483;28;20083;-65
2023/07/12 02:18:06;;;;;;;7.13;2.58;;;21.70;72.20;;;;;;5054809;28;20025;-65
2023/07/12 02:20:32;;;;;;;6.25;2.08;;;21.70;72.40;;;;;;5053412;28;20044;-66
2023/07/12 02:22:58;;;;;;;7.55;2.22;;;21.70;72.30;;;;;;5054751;28;20029;-66
2023/07/12 02:25:24;;;;;;;6.68;2.30;;;21.70;72.30;;;;;;5051395;28;20054;-66
2023/07/12 02:27:50;;;;;;;7.15;2.55;;;21.70;72.30;;;;;;5054917;28;20037;-66
2023/07/12 02:30:20;;;;;;;6.95;2.42;;;21.60;72.50;;;;;;5052189;28;20044;-66
2023/07/12 02:32:46;;;;;;;6.07;2.00;;;21.60;72.70;;;;;;5052963;28;20045;-66
2023/07/12 02:35:13;;;;;;;7.50;2.42;;;21.50;72.70;;;;;;5052636;28;20350;-66
2023/07/12 02:37:39;;;;;;;6.13;2.70;;;21.60;72.70;;;;;;5053406;28;20044;-66
2023/07/12 02:40:07;;;;;;;9.25;2.50;;;21.50;72.50;;;;;;5052716;28;20056;-65
2023/07/12 02:42:33;;;;;;;6.15;2.38;;;21.50;72.60;;;;;;5054092;28;20033;-65
2023/07/12 02:44:58;;;;;;;6.82;2.58;;;21.40;72.60;;;;;;5052399;28;20036;-66
2023/07/12 02:47:24;;;;;;;10.35;2.35;;;21.40;72.60;;;;;;5052215;28;20029;-65
2023/07/12 02:49:50;;;;;;;6.32;2.25;;;21.40;73.40;;;;;;5046021;28;20339;-66
2023/07/12 02:52:16;;;;;;;5.68;1.65;;;21.40;72.70;;;;;;5047835;28;20029;-65
2023/07/12 02:54:42;;;;;;;6.35;1.95;;;21.40;72.60;;;;;;5052286;28;20090;-65
2023/07/12 02:57:12;;;;;;;4.18;1.70;;;21.40;72.30;;;;;;5052772;28;20454;-66
2023/07/12 02:59:38;;;;;;;5.75;1.92;;;21.40;72.30;;;;;;5053111;28;20071;-65
2023/07/12 03:02:07;;;;;;;6.43;1.80;;;21.40;72.20;;;;;;5054075;28;20047;-66
2023/07/12 03:04:33;;;;;;;4.82;1.80;;;21.40;72.20;;;;;;5052959;28;20033;-65
2023/07/12 03:06:59;;;;;;;5.15;1.60;;;21.40;72.10;;;;;;5052431;28;20025;-65
2023/07/12 03:09:25;;;;;;;7.30;2.15;;;21.40;72.10;;;;;;5052651;28;20025;-65
2023/07/12 03:11:51;;;;;;;6.63;2.08;;;21.30;72.10;;;;;;5059195;28;20045;-66
2023/07/12 03:14:21;;;;;;;6.22;2.25;;;21.30;72.10;;;;;;5056518;28;20101;-66
2023/07/12 03:16:47;;;;;;;6.73;1.80;;;21.30;72.20;;;;;;5044966;28;20345;-65
2023/07/12 03:19:23;;;;;;;6.95;1.90;;;21.30;72.20;;;;;;5073559;28;20021;-66
2023/07/12 03:21:48;;;;;;;6.97;2.33;;;21.30;72.10;;;;;;5054822;28;20021;-65
2023/07/12 03:24:14;;;;;;;6.43;1.85;;;21.20;72.10;;;;;;5056564;28;20020;-66
2023/07/12 03:26:40;;;;;;;7.38;2.10;;;21.30;72.20;;;;;;5071926;28;20028;-66
2023/07/12 03:29:06;;;;;;;5.32;1.75;;;21.20;72.20;;;;;;5073272;28;20377;-65
2023/07/12 03:31:32;;;;;;;7.30;2.42;;;21.20;72.20;;;;;;5071688;28;20040;-66
2023/07/12 03:33:59;;;;;;;6.60;2.03;;;21.20;72.20;;;;;;5042461;28;20016;-65
2023/07/12 03:36:28;;;;;;;7.43;2.20;;;21.20;72.10;;;;;;5073224;28;20028;-65
2023/07/12 03:38:55;;;;;;;6.00;2.13;;;21.20;72.10;;;;;;5071644;28;20044;-65
2023/07/12 03:41:21;;;;;;;5.40;1.70;;;21.20;72.20;;;;;;5072888;28;20087;-65
2023/07/12 03:43:48;;;;;;;5.07;1.95;;;21.20;72.20;;;;;;5055697;28;20461;-65
2023/07/12 03:46:15;;;;;;;6.40;2.25;;;21.20;72.10;;;;;;5072219;28;20032;-65
2023/07/12 03:48:41;;;;;;;4.47;1.92;;;21.10;72.00;;;;;;5035491;28;20021;-65
2023/07/12 03:51:08;;;;;;;6.60;2.30;;;21.10;72.00;;;;;;5072734;28;20472;-65
2023/07/12 03:53:35;;;;;;;7.03;2.00;;;21.00;72.00;;;;;;5054455;28;20024;-65
2023/07/12 03:56:01;;;;;;;7.07;2.17;;;21.00;71.90;;;;;;5072452;28;20029;-65
2023/07/12 03:58:30;;;;;;;5.78;2.22;;;21.00;72.00;;;;;;5054988;28;20056;-65
2023/07/12 04:00:56;;;;;;;6.03;1.80;;;21.00;72.20;;;;;;5070993;28;20090;-65
2023/07/12 04:03:49;;;;;;;4.75;2.13;;;20.90;72.20;;;;;;5073284;28;20029;-65
2023/07/12 04:06:15;;;;;;;6.45;2.58;;;20.90;72.20;;;;;;5071742;28;20108;-65
2023/07/12 04:12:09;;;;;;;5.72;2.30;;;20.90;72.20;;;;;;5049095;28;20044;-65
2023/07/12 04:14:35;;;;;;;7.28;2.97;;;20.90;72.20;;;;;;5054489;28;20025;-64
2023/07/12 04:17:00;;;;;;;6.45;2.70;;;20.90;72.20;;;;;;5070633;28;20024;-64
2023/07/12 04:19:26;;;;;;;8.40;2.90;;;20.90;72.20;;;;;;5071427;28;20021;-64
2023/07/12 04:21:52;;;;;;;10.95;3.38;;;20.90;72.10;;;;;;5071936;28;20036;-64
2023/07/12 04:24:18;;;;;;;7.38;3.42;;;20.90;72.20;;;;;;5072109;28;20033;-64
2023/07/12 04:26:43;;;;;;;9.98;3.35;;;20.80;72.30;;;;;;5074533;28;20091;-64
2023/07/12 04:29:09;;;;;;;10.15;3.63;;;20.80;72.30;;;;;;5075715;28;20068;-64
2023/07/12 04:31:35;;;;;;;8.52;3.90;;;20.80;72.90;;;;;;5069957;28;20035;-64
2023/07/12 04:34:00;;;;;;;10.73;4.57;;;20.90;72.20;;;;;;5073592;28;20032;-64
2023/07/12 04:36:26;;;;;;;9.88;5.00;;;20.90;72.10;;;;;;5069934;28;20099;-64
2023/07/12 04:38:52;;;;;;;8.45;4.65;;;20.90;71.90;;;;;;5053068;28;20107;-64
2023/07/12 04:41:18;;;;;;;10.27;5.45;;;20.90;71.80;;;;;;5068420;28;20074;-65
2023/07/12 04:43:43;;;;;;;9.43;4.90;;;20.90;71.80;;;;;;5051215;28;20420;-65
2023/07/12 04:46:09;;;;;;;12.18;5.97;;;20.80;72.00;;;;;;5052706;28;20462;-65
2023/07/12 04:48:35;;;;;;;9.95;5.40;;;20.80;72.00;;;;;;5052974;28;20445;-65
2023/07/12 04:51:03;;;;;;;9.85;5.82;;;20.80;71.90;;;;;;5052207;28;20020;-65
2023/07/12 04:53:29;;;;;;;11.23;6.10;;;20.80;71.90;;;;;;5072152;28;20082;-65
2023/07/12 04:55:55;;;;;;;10.27;6.63;;;20.80;71.90;;;;;;5074493;28;20039;-65
2023/07/12 04:58:46;;;;;;;10.70;6.45;;;20.80;71.90;;;;;;5052458;28;20032;-66
2023/07/12 05:01:13;;;;;;;11.20;6.68;;;20.80;72.00;;;;;;5065436;28;20111;-65
2023/07/12 05:03:38;;;;;;;9.73;6.55;;;20.80;72.00;;;;;;5053591;28;20056;-65
2023/07/12 05:06:04;;;;;;;11.73;6.53;;;20.80;72.60;;;;;;5036443;28;20052;-65
2023/07/12 05:08:30;;;;;;;11.73;6.85;;;20.90;71.90;;;;;;5070827;28;21297;-65
2023/07/12 05:11:00;;;;;;;12.75;7.60;;;20.80;71.80;;;;;;5070005;28;20044;-66
2023/07/12 05:13:25;;;;;;;9.77;7.10;;;20.80;71.90;;;;;;5051419;28;20094;-65
2023/07/12 05:15:52;;;;;;;11.35;7.65;;;20.80;71.90;;;;;;5058451;28;20040;-65
2023/07/12 05:18:18;;;;;;;9.70;7.25;;;20.80;71.90;;;;;;5057332;28;20028;-65
2023/07/12 05:20:44;;;;;;;10.85;7.53;;;20.90;71.80;;;;;;5057819;28;20029;-65
2023/07/12 05:23:10;;;;;;;10.60;7.03;;;20.90;71.60;;;;;;5073453;28;20112;-64
2023/07/12 05:26:00;;;;;;;12.23;8.20;;;21.00;71.60;;;;;;5074790;28;20032;-64
2023/07/12 05:28:26;;;;;;;13.10;7.90;;;21.00;71.40;;;;;;5056272;28;20495;-64
2023/07/12 05:30:51;;;;;;;10.95;7.22;;;21.00;71.30;;;;;;5075391;28;20032;-64
2023/07/12 05:33:17;;;;;;;11.50;7.43;;;21.10;71.20;;;;;;5054342;28;20025;-63
2023/07/12 05:35:43;;;;;;;13.05;8.07;;;21.20;71.10;;;;;;5071507;28;20027;-64
2023/07/12 05:38:09;;;;;;;11.63;8.25;;;21.10;70.90;;;;;;5050547;28;20149;-63
2023/07/12 05:40:34;;;;;;;12.30;8.07;;;21.10;71.00;;;;;;5050847;28;20154;-63
2023/07/12 05:43:00;;;;;;;12.35;8.18;;;21.00;71.00;;;;;;5052002;28;20449;-63
2023/07/12 05:45:26;;;;;;;12.40;7.38;;;21.00;71.20;;;;;;5053014;28;20025;-63
2023/07/12 05:47:52;;;;;;;10.80;7.20;;;21.00;71.20;;;;;;5052296;28;20039;-64
2023/07/12 05:50:19;;;;;;;11.35;6.90;;;21.00;71.20;;;;;;5068868;28;21188;-64
2023/07/12 05:52:46;;;;;;;10.32;6.70;;;21.00;71.20;;;;;;5067581;28;20040;-64
2023/07/12 05:55:14;;;;;;;11.68;6.28;;;21.10;71.20;;;;;;5053296;28;20074;-63
2023/07/12 05:57:40;;;;;;;9.10;5.75;;;21.10;70.90;;;;;;5052616;28;20024;-64
2023/07/12 06:00:10;;;;;;;11.70;6.00;;;21.20;70.60;;;;;;5067884;28;20115;-64
2023/07/12 06:02:38;;;;;;;12.85;5.28;;;21.30;70.40;;;;;;5050633;28;20108;-64
2023/07/12 06:05:05;;;;;;;11.73;5.05;;;21.40;70.30;;;;;;5049686;28;20025;-63
2023/07/12 06:07:31;;;;;;;9.82;4.70;;;21.30;70.00;;;;;;5063247;28;20021;-63
2023/07/12 06:09:57;;;;;;;11.05;5.43;;;21.20;70.00;;;;;;5057670;28;20027;-63
2023/07/12 06:12:23;;;;;;;10.02;4.90;;;21.20;70.20;;;;;;5071839;28;20365;-63
2023/07/12 06:14:49;;;;;;;7.97;4.45;;;21.20;70.20;;;;;;5051354;28;20031;-64
2023/07/12 06:17:18;;;;;;;12.55;5.28;;;21.20;70.20;;;;;;5052396;28;20020;-64
2023/07/12 06:19:44;;;;;;;8.95;4.93;;;21.20;70.10;;;;;;5071432;28;20037;-64
2023/07/12 06:22:10;;;;;;;8.60;4.00;;;21.30;70.10;;;;;;5067813;28;20082;-64
2023/07/12 06:24:36;;;;;;;9.77;4.20;;;21.30;70.00;;;;;;5049575;28;20090;-64
2023/07/12 06:27:02;;;;;;;8.18;4.10;;;21.40;69.90;;;;;;5069816;28;20032;-64
2023/07/12 06:29:29;;;;;;;8.10;4.13;;;21.40;69.70;;;;;;5067741;28;20017;-64
2023/07/12 06:31:55;;;;;;;9.50;4.32;;;21.40;69.80;;;;;;5069123;28;20089;-64
2023/07/12 06:34:21;;;;;;;8.52;4.45;;;21.50;69.80;;;;;;5072584;28;20426;-64
2023/07/12 06:36:47;;;;;;;9.32;3.95;;;21.50;69.70;;;;;;5074252;28;20032;-64
2023/07/12 06:39:13;;;;;;;9.90;4.43;;;21.70;69.40;;;;;;5072572;28;20158;-64
2023/07/12 06:41:38;;;;;;;10.65;4.72;;;21.80;69.10;;;;;;5051042;28;20028;-64
2023/07/12 06:44:05;;;;;;;9.40;4.22;;;21.80;68.80;;;;;;5055936;28;20432;-64
2023/07/12 06:46:31;;;;;;;10.02;3.83;;;21.80;68.60;;;;;;5054229;28;20032;-64
2023/07/12 06:48:57;;;;;;;8.73;4.13;;;21.90;68.40;;;;;;5037943;28;20051;-64
2023/07/12 06:51:23;;;;;;;7.95;3.45;;;22.00;68.30;;;;;;5055861;28;20421;-64
2023/07/12 06:53:49;;;;;;;8.93;3.83;;;22.10;68.20;;;;;;5039211;28;20087;-64
2023/07/12 06:56:15;;;;;;;9.20;4.03;;;22.10;68.10;;;;;;5072810;28;20029;-64
2023/07/12 06:58:41;;;;;;;9.35;4.25;;;22.10;67.80;;;;;;5074286;28;20024;-65
2023/07/12 07:01:08;;;;;;;7.28;3.22;;;22.00;67.90;;;;;;5072081;28;20811;-64
2023/07/12 07:03:35;;;;;;;10.57;3.70;;;21.90;67.90;;;;;;5056270;28;20370;-64
2023/07/12 07:06:01;;;;;;;8.10;3.80;;;21.90;68.00;;;;;;5038713;28;20098;-64
2023/07/12 07:08:27;;;;;;;9.63;3.70;;;21.90;67.80;;;;;;5072120;28;20111;-64
2023/07/12 07:10:53;;;;;;;8.98;3.85;;;21.90;67.80;;;;;;5050197;28;20017;-64
2023/07/12 07:13:23;;;;;;;10.10;4.25;;;21.90;67.80;;;;;;5055074;28;20039;-64
2023/07/12 07:15:50;;;;;;;10.75;4.50;;;21.80;67.70;;;;;;5041915;28;20032;-64
2023/07/12 07:18:16;;;;;;;10.20;4.88;;;21.80;67.80;;;;;;5073004;28;20127;-64
2023/07/12 07:20:43;;;;;;;11.02;4.68;;;21.70;67.80;;;;;;5072700;28;20043;-64
2023/07/12 07:23:10;;;;;;;8.38;3.80;;;21.70;67.90;;;;;;5071951;28;20051;-64
2023/07/12 07:25:39;;;;;;;8.80;3.92;;;21.70;67.90;;;;;;5038058;28;20456;-64
2023/07/12 07:28:06;;;;;;;8.90;4.18;;;21.70;68.00;;;;;;5056181;28;20090;-66
2023/07/12 07:30:32;;;;;;;10.55;4.63;;;21.90;67.90;;;;;;5035636;28;20292;-64
2023/07/12 07:32:58;;;;;;;9.55;4.22;;;22.00;67.50;;;;;;5068815;28;20515;-65
2023/07/12 07:35:24;;;;;;;8.65;4.43;;;22.20;66.90;;;;;;5054248;28;20025;-64
2023/07/12 07:37:51;;;;;;;8.15;4.10;;;22.30;66.50;;;;;;5063975;28;20040;-64
2023/07/12 07:40:17;;;;;;;9.10;4.72;;;22.30;66.30;;;;;;5064887;28;20039;-64
2023/07/12 07:42:44;;;;;;;10.07;4.63;;;22.30;66.40;;;;;;5049807;28;20033;-64
2023/07/12 07:45:10;;;;;;;11.00;4.45;;;22.30;66.70;;;;;;5066236;28;20132;-64
2023/07/12 07:47:37;;;;;;;9.70;3.65;;;22.20;66.60;;;;;;5068127;28;20365;-64
2023/07/12 07:50:05;;;;;;;9.93;4.65;;;22.20;66.70;;;;;;5064623;28;20025;-64
2023/07/12 07:52:31;;;;;;;9.40;4.25;;;22.20;66.80;;;;;;5069305;28;20402;-64
2023/07/12 07:54:56;;;;;;;12.32;4.00;;;22.10;66.80;;;;;;5073178;28;20040;-64
2023/07/12 07:57:22;;;;;;;10.27;3.60;;;22.10;66.90;;;;;;5055690;28;20090;-64
2023/07/12 07:59:48;;;;;;;14.27;4.13;;;22.10;66.90;;;;;;5073987;28;20384;-64
2023/07/12 08:02:14;;;;;;;8.77;3.97;;;22.10;66.90;;;;;;5076335;28;20032;-64
2023/07/12 08:04:40;;;;;;;8.98;3.70;;;22.10;66.90;;;;;;5076845;28;20373;-64
2023/07/12 08:07:06;;;;;;;11.57;3.92;;;22.20;66.80;;;;;;5077294;28;20353;-65
2023/07/12 08:09:36;;;;;;;9.48;3.05;;;22.20;66.60;;;;;;5059592;28;20032;-65
2023/07/12 08:12:03;;;;;;;8.05;3.08;;;22.30;66.20;;;;;;5042123;28;20044;-64
2023/07/12 08:14:29;;;;;;;9.45;3.50;;;22.30;66.10;;;;;;5076312;28;20020;-65
2023/07/12 08:16:55;;;;;;;9.57;3.03;;;22.40;66.00;;;;;;5077037;28;20403;-65
2023/07/12 08:19:22;;;;;;;8.50;3.00;;;22.40;66.60;;;;;;5077629;28;20055;-64
2023/07/12 08:21:49;;;;;;;8.52;4.03;;;22.30;65.90;;;;;;5058876;28;20036;-65
2023/07/12 08:24:16;;;;;;;9.05;3.50;;;22.20;66.00;;;;;;5059240;28;20025;-65
2023/07/12 08:26:41;;;;;;;9.00;3.92;;;22.20;66.40;;;;;;5059194;28;20032;-65
2023/07/12 08:29:07;;;;;;;9.18;3.80;;;22.10;66.60;;;;;;5075494;28;20070;-64
2023/07/12 08:31:33;;;;;;;10.00;3.97;;;22.00;66.60;;;;;;5057815;28;20101;-64
2023/07/12 08:33:59;;;;;;;8.32;4.00;;;22.10;66.70;;;;;;5058922;28;20074;-64
2023/07/12 08:36:25;;;;;;;8.77;3.35;;;22.00;66.80;;;;;;5076784;28;20040;-64
2023/07/12 08:38:51;;;;;;;8.60;3.70;;;22.00;67.00;;;;;;5076928;28;20025;-64
2023/07/12 08:41:21;;;;;;;10.52;4.32;;;22.00;66.90;;;;;;5058339;28;20029;-64
2023/07/12 08:43:48;;;;;;;11.20;3.50;;;22.20;66.90;;;;;;5058534;28;20028;-64
2023/07/12 08:46:25;;;;;;;10.07;4.15;;;22.50;66.30;;;;;;5076585;28;20025;-64
2023/07/12 08:49:02;;;;;;;9.50;3.90;;;23.00;65.30;;;;;;5076563;28;20439;-64
2023/07/12 08:51:30;;;;;;;9.80;3.42;;;23.50;64.20;;;;;;5075892;28;20044;-64
2023/07/12 08:53:56;;;;;;;9.32;3.22;;;23.80;63.20;;;;;;5057520;28;20112;-64
2023/07/12 08:56:23;;;;;;;7.95;3.45;;;23.80;62.70;;;;;;5077233;28;20050;-65
2023/07/12 08:59:18;;;;;;;10.82;3.53;;;23.80;62.40;;;;;;5076493;28;20063;-64
2023/07/12 09:01:52;;;;;;;7.65;3.30;;;23.80;62.20;;;;;;5033650;28;20104;-64
2023/07/12 09:04:23;;;;;;;6.50;3.55;;;23.80;62.30;;;;;;5034442;28;20560;-65
2023/07/12 09:06:54;;;;;;;7.90;3.15;;;24.10;61.90;;;;;;5017770;28;20068;-65
2023/07/12 09:09:20;;;;;;;5.72;2.70;;;24.30;61.20;;;;;;5017950;28;20384;-65
2023/07/12 09:11:46;;;;;;;10.20;3.45;;;24.30;60.90;;;;;;5016431;28;20041;-65
2023/07/12 09:14:20;;;;;;;8.43;2.83;;;24.40;61.50;;;;;;5034358;28;20114;-64
2023/07/12 09:16:49;;;;;;;6.68;2.70;;;24.60;60.00;;;;;;5018211;28;20033;-64
2023/07/12 09:19:25;;;;;;;8.32;2.90;;;24.60;59.70;;;;;;5034451;28;20033;-64
2023/07/12 09:21:56;;;;;;;8.95;2.72;;;24.80;59.30;;;;;;5016932;28;20041;-64
2023/07/12 09:24:25;;;;;;;8.98;2.83;;;24.90;58.80;;;;;;5034278;28;20209;-64
2023/07/12 09:27:00;;;;;;;8.15;3.28;;;24.90;58.90;;;;;;5017950;28;20103;-64
2023/07/12 09:29:26;;;;;;;8.88;2.58;;;24.80;59.10;;;;;;5018215;28;20033;-64
2023/07/12 09:31:59;;;;;;;9.57;3.13;;;24.80;59.30;;;;;;5022057;28;20044;-65
2023/07/12 09:34:39;;;;;;;7.05;2.92;;;25.00;58.90;;;;;;5057077;28;20016;-65
2023/07/12 09:37:16;;;;;;;5.70;2.20;;;25.30;58.10;;;;;;5075868;28;20074;-65
2023/07/12 09:39:52;;;;;;;8.30;3.13;;;25.40;57.60;;;;;;5075832;28;20357;-65
2023/07/12 09:42:18;;;;;;;7.32;2.80;;;25.50;57.20;;;;;;5076010;28;20024;-65
2023/07/12 09:44:46;;;;;;;8.07;3.03;;;25.50;57.10;;;;;;5040198;28;20051;-65
2023/07/12 09:47:34;;;;;;;8.35;2.97;;;25.60;56.80;;;;;;5075871;28;20479;-65
2023/07/12 09:50:26;;;;;;;8.60;2.33;;;25.60;56.70;;;;;;5058229;28;20432;-65
2023/07/12 09:53:03;;;;;;;8.90;2.72;;;25.80;56.20;;;;;;5062283;28;20085;-65
2023/07/12 09:55:29;;;;;;;6.28;2.35;;;25.80;55.70;;;;;;5055707;28;20033;-65
2023/07/12 09:58:13;;;;;;;8.18;2.63;;;25.70;55.70;;;;;;5075757;28;20043;-64
2023/07/12 10:01:00;;;;;;;8.40;2.53;;;25.50;55.80;;;;;;5075499;28;20060;-65
2023/07/12 10:03:48;;;;;;;6.63;2.47;;;25.50;56.20;;;;;;5056938;28;20043;-65
2023/07/12 10:06:35;;;;;;;5.57;2.20;;;25.80;55.80;;;;;;5056807;28;20110;-65
2023/07/12 10:09:12;;;;;;;8.38;2.65;;;26.20;55.20;;;;;;5057931;28;20024;-65
2023/07/12 10:11:46;;;;;;;8.60;2.65;;;26.40;54.60;;;;;;5057669;28;20163;-64
2023/07/12 10:14:16;;;;;;;8.95;3.03;;;26.20;54.60;;;;;;5057550;28;20424;-65
2023/07/12 10:16:52;;;;;;;5.55;2.33;;;26.10;54.90;;;;;;5073806;28;20024;-64
2023/07/12 10:19:25;;;;;;;6.88;1.80;;;26.40;54.50;;;;;;5075155;28;20024;-65
2023/07/12 10:21:54;;;;;;;7.70;2.42;;;26.50;54.10;;;;;;5057455;28;20024;-64
2023/07/12 10:24:28;;;;;;;7.53;2.67;;;26.50;54.10;;;;;;5074737;28;20457;-65
2023/07/12 10:26:54;;;;;;;7.32;3.22;;;26.50;53.90;;;;;;5074240;28;20044;-65
2023/07/12 10:29:27;;;;;;;5.65;2.47;;;26.30;54.10;;;;;;5072481;28;20095;-64
2023/07/12 10:31:56;;;;;;;7.15;2.92;;;26.00;54.10;;;;;;5072550;28;20035;-64
2023/07/12 10:34:31;;;;;;;7.95;2.50;;;25.70;54.30;;;;;;5072514;28;20060;-64
2023/07/12 10:37:10;;;;;;;8.13;2.65;;;25.70;54.50;;;;;;5056340;28;20098;-65
2023/07/12 10:39:36;;;;;;;5.72;2.63;;;25.70;54.50;;;;;;5055585;28;20699;-63
2023/07/12 10:42:27;;;;;;;7.28;3.10;;;25.70;54.40;;;;;;5055995;28;20028;-64
2023/07/12 10:44:55;;;;;;;7.85;2.63;;;25.50;54.80;;;;;;5066710;28;20028;-63
2023/07/12 10:47:27;;;;;;;7.72;3.03;;;25.30;55.40;;;;;;5073205;28;20034;-63
2023/07/12 10:50:02;;;;;;;8.18;2.85;;;25.00;56.20;;;;;;5068123;28;20029;-64
2023/07/12 10:52:53;;;;;;;8.18;3.00;;;24.80;57.30;;;;;;5050867;28;20111;-64
2023/07/12 10:55:47;;;;;;;9.05;3.03;;;24.60;58.20;;;;;;5049448;28;20036;-65
2023/07/12 10:58:21;;;;;;;8.77;2.90;;;24.50;58.50;;;;;;5065280;28;20354;-65
2023/07/12 11:00:58;;;;;;;6.10;2.40;;;24.30;59.00;;;;;;5067865;28;20118;-65
2023/07/12 11:03:45;;;;;;;7.20;2.35;;;24.10;59.50;;;;;;5066910;28;20025;-65
2023/07/12 11:06:25;;;;;;;7.35;2.65;;;23.90;60.00;;;;;;5069225;28;20118;-64
2023/07/12 11:09:09;;;;;;;7.03;2.05;;;23.90;60.50;;;;;;5050692;28;20024;-64
2023/07/12 11:11:43;;;;;;;7.20;2.00;;;24.10;60.40;;;;;;5069024;28;20056;-64
2023/07/12 11:14:18;;;;;;;5.97;2.15;;;24.40;59.80;;;;;;5066399;28;20580;-64
2023/07/12 11:16:51;;;;;;;5.07;2.00;;;24.60;59.00;;;;;;5067704;28;20024;-64
2023/07/12 11:19:46;;;;;;;5.68;2.00;;;24.90;58.60;;;;;;5050931;28;20174;-64
2023/07/12 11:22:22;;;;;;;7.65;2.22;;;25.30;57.70;;;;;;5033814;28;20052;-64
2023/07/12 11:24:53;;;;;;;8.82;2.20;;;25.40;57.10;;;;;;5060153;28;20039;-64
2023/07/12 11:27:39;;;;;;;6.90;2.60;;;25.40;57.10;;;;;;5055681;28;20067;-64
2023/07/12 11:30:14;;;;;;;6.75;2.10;;;25.20;57.10;;;;;;5045389;28;20025;-67
2023/07/12 11:32:40;;;;;;;6.47;1.85;;;25.00;57.30;;;;;;5039154;28;20039;-67
2023/07/12 11:35:20;;;;;;;7.72;2.53;;;24.90;57.40;;;;;;5042018;28;20090;-69
2023/07/12 11:37:49;;;;;;;8.73;2.08;;;25.00;57.30;;;;;;5041582;28;20111;-67
2023/07/12 11:40:24;;;;;;;6.70;2.33;;;25.30;57.10;;;;;;5053203;28;20043;-66
2023/07/12 11:42:50;;;;;;;6.63;2.25;;;25.50;56.80;;;;;;5058072;28;20094;-66
2023/07/12 11:45:20;;;;;;;6.97;2.30;;;25.70;56.40;;;;;;5062485;28;20115;-66
2023/07/12 11:47:49;;;;;;;9.98;3.00;;;26.00;55.70;;;;;;5036955;28;20408;-66
2023/07/12 11:50:26;;;;;;;7.78;2.75;;;26.30;55.20;;;;;;5056147;28;20342;-65
2023/07/12 11:52:54;;;;;;;8.32;2.88;;;26.50;54.70;;;;;;5041387;28;20393;-65
2023/07/12 11:55:25;;;;;;;7.95;2.28;;;26.60;54.20;;;;;;5051826;28;20406;-65
2023/07/12 11:57:51;;;;;;;7.97;2.30;;;26.70;53.80;;;;;;5060930;28;20108;-66
2023/07/12 12:00:24;;;;;;;6.90;1.90;;;26.70;53.50;;;;;;5055633;28;20334;-66
2023/07/12 12:02:57;;;;;;;5.70;2.25;;;26.80;52.90;;;;;;5060878;28;20131;-67
2023/07/12 12:05:31;;;;;;;5.95;2.15;;;26.90;52.60;;;;;;5043035;28;20036;-68
2023/07/12 12:07:59;;;;;;;4.88;2.05;;;26.90;52.20;;;;;;5052421;28;20457;-67
2023/07/12 12:10:28;;;;;;;6.78;2.45;;;27.00;51.90;;;;;;5056028;28;20029;-67
2023/07/12 12:12:54;;;;;;;6.00;2.13;;;27.00;51.50;;;;;;4995404;28;1173173;-68
2023/07/12 12:15:26;;;;;;;8.80;2.50;;;27.00;51.50;;;;;;5036500;28;20719;-67
2023/07/12 12:17:54;;;;;;;5.53;1.83;;;26.90;51.20;;;;;;5065831;28;20119;-66
2023/07/12 12:20:25;;;;;;;6.50;1.80;;;26.90;51.30;;;;;;5047402;28;20091;-66
2023/07/12 12:22:57;;;;;;;5.80;2.30;;;26.80;51.30;;;;;;5032504;28;20119;-66
2023/07/12 12:25:25;;;;;;;5.25;1.95;;;26.60;51.30;;;;;;5048000;28;20350;-67
2023/07/12 12:27:52;;;;;;;4.80;1.50;;;26.60;51.50;;;;;;5046397;28;20115;-65
2023/07/12 12:30:20;;;;;;;4.32;1.77;;;26.60;51.30;;;;;;5066329;28;20120;-65
2023/07/12 12:33:21;;;;;;;6.90;1.67;;;26.70;51.00;;;;;;5067198;28;20025;-67
2023/07/12 12:35:48;;;;;;;6.22;2.08;;;26.60;50.40;;;;;;5065759;28;20032;-66
2023/07/12 12:38:22;;;;;;;6.55;2.45;;;26.60;50.60;;;;;;5066626;28;20024;-66
2023/07/12 12:41:13;;;;;;;6.22;1.92;;;26.60;50.50;;;;;;5066458;28;20028;-67
2023/07/12 12:44:06;;;;;;;6.03;2.10;;;26.50;50.50;;;;;;5053500;28;20033;-66
2023/07/12 12:46:32;;;;;;;6.35;2.00;;;26.50;50.70;;;;;;5013743;28;20044;-66
2023/07/12 12:48:58;;;;;;;5.47;1.95;;;26.40;50.80;;;;;;5075847;28;20369;-66
2023/07/12 12:51:24;;;;;;;7.53;2.00;;;26.30;50.80;;;;;;5058205;28;20035;-67
2023/07/12 12:53:50;;;;;;;5.43;1.85;;;26.30;50.70;;;;;;5076901;28;20025;-66
2023/07/12 12:56:16;;;;;;;6.07;2.03;;;26.10;50.60;;;;;;5075991;28;20032;-66
2023/07/12 12:58:43;;;;;;;5.15;1.92;;;26.00;50.50;;;;;;5041350;28;20461;-66
2023/07/12 13:01:10;;;;;;;6.18;2.22;;;26.00;50.90;;;;;;5076866;28;20090;-66